M I D A S
Marine Information and Data Acquisition System
Tripno 1454 of the Zeeleeuw from 2008-04-09 07:03:28 to 2008-04-09 10:24:47
Back to CruiseResearch ActivitiesStationsMapUnderway DataData graphs

EquipmentUnitsComment
TimeDGPSUTC
LatitudeDGPSDM.mWGS84
LongitudeDGPSDM.mWGS84
HeadingGyrodeg 
SOGDGPSknotsSpeed over ground
COGDGPSdegCourse over ground
DepthEcho soundermeters200 kHz
Missing or incorrect values are displayed as -999
Navigation data collected by the RV Zeeleeuw from 2008-04-09 07:06:11 to 2008-04-09 10:35:00
Time Latitude Longitude Heading SOG COG Depth
2008-04-09 07:07:20 51°13.685 2°55.877 115.3 4.2 296 -999
2008-04-09 07:08:20 51°13.727 2°55.768 125.2 5.3 305 -999
2008-04-09 07:09:20 51°13.791 2°55.668 145.4 5.5 325 -999
2008-04-09 07:10:20 51°13.875 2°55.615 175.6 5.3 355 -999
2008-04-09 07:11:20 51°13.945 2°55.642 211.1 3.2 25 -999
2008-04-09 07:12:20 51°13.964 2°55.644 263.5 1.6 282 -999
2008-04-09 07:13:20 51°14.004 2°55.543 309.2 6.4 312 -999
2008-04-09 07:14:20 51°14.102 2°55.431 328.3 7.7 330 -999
2008-04-09 07:15:20 51°14.214 2°55.322 323.7 8 323 -999
2008-04-09 07:16:19 51°14.307 2°55.176 311.4 8.1 310 9.3
2008-04-09 07:17:17 51°14.392 2°54.987 303.1 10.2 303 9.1
2008-04-09 07:18:16 51°14.519 2°54.803 338.7 10.8 333 9.2
2008-04-09 07:19:16 51°14.687 2°54.75 7.8 10.1 1 8.5
2008-04-09 07:20:17 51°14.858 2°54.766 9.3 10.1 2 8.2
2008-04-09 07:21:16 51°15.023 2°54.778 10.2 10 4 7.5
2008-04-09 07:22:16 51°15.188 2°54.802 14.3 9.9 8 7
2008-04-09 07:23:16 51°15.346 2°54.871 25.3 9.8 21 7.4
2008-04-09 07:24:16 51°15.489 2°54.996 33.9 9.8 29 7.6
2008-04-09 07:25:16 51°15.63 2°55.124 34 9.8 29 7.9
2008-04-09 07:26:16 51°15.775 2°55.241 32.5 9.7 27 8.3
2008-04-09 07:27:16 51°15.921 2°55.355 32.3 9.8 25 8.5
2008-04-09 07:28:16 51°16.067 2°55.466 32.6 9.7 25 8.7
2008-04-09 07:29:16 51°16.213 2°55.576 33.2 9.6 28 8.9
2008-04-09 07:30:16 51°16.355 2°55.692 34.9 9.6 27 9
2008-04-09 07:31:16 51°16.497 2°55.805 34.7 9.6 26 8.8
2008-04-09 07:32:16 51°16.636 2°55.927 37.5 9.5 30 8.7
2008-04-09 07:33:16 51°16.772 2°56.053 38.6 9.5 31 8.7
2008-04-09 07:34:16 51°16.909 2°56.181 37.6 9.5 31 8.5
2008-04-09 07:35:16 51°17.043 2°56.318 39.9 9.7 35 8.4
2008-04-09 07:36:16 51°17.176 2°56.467 40.9 9.8 36 8.3
2008-04-09 07:37:16 51°17.308 2°56.618 39 9.8 33 8.5
2008-04-09 07:38:16 51°17.448 2°56.751 36.3 9.8 30 8.5
2008-04-09 07:39:16 51°17.588 2°56.879 36.9 9.6 30 8.5
2008-04-09 07:40:16 51°17.726 2°57.008 36.6 9.5 30 8.6
2008-04-09 07:41:16 51°17.814 2°57.088 43.1 4.1 30 8.7
2008-04-09 07:42:16 51°17.855 2°57.129 48.5 2.6 29 8.6
2008-04-09 07:43:16 51°17.9 2°57.162 39.4 3.5 23 8.7
2008-04-09 07:44:16 51°17.959 2°57.201 38.6 3.9 27 8.5
2008-04-09 07:45:16 51°18.023 2°57.279 49.7 6 39 8.3
2008-04-09 07:46:16 51°18.113 2°57.36 53.2 5.7 55 8.1
2008-04-09 07:47:16 51°18.13 2°57.463 88.5 2.1 106 8.2
2008-04-09 07:48:16 51°18.107 2°57.463 132.7 1.7 207 8.4
2008-04-09 07:49:16 51°18.081 2°57.437 144.1 1.9 217 8.4
2008-04-09 07:50:16 51°18.056 2°57.405 144.2 1.9 222 8.5
2008-04-09 07:51:16 51°18.032 2°57.369 144.8 1.9 225 8.5
2008-04-09 07:52:16 51°18.01 2°57.332 146.5 2.1 228 8.5
2008-04-09 07:53:16 51°17.99 2°57.293 148.4 2 231 8.5
2008-04-09 07:54:16 51°17.97 2°57.252 150 1.9 233 8.5
2008-04-09 07:55:16 51°17.946 2°57.226 126.2 2 165 8.5
2008-04-09 07:56:16 51°17.951 2°57.266 47.5 1.9 28 8.4
2008-04-09 07:57:16 51°17.972 2°57.329 75 3.1 78 8.5
2008-04-09 07:58:16 51°17.964 2°57.394 93.8 2.6 110 8.7
2008-04-09 07:59:16 51°17.949 2°57.471 93.6 3.3 108 8.8
2008-04-09 08:00:16 51°17.931 2°57.556 94.7 3.3 105 8.7
2008-04-09 08:01:16 51°17.931 2°57.636 71.9 2.8 73 8.6
2008-04-09 08:02:16 51°17.958 2°57.7 55.7 3.1 54 8.6
2008-04-09 08:03:16 51°17.99 2°57.766 58.7 3.1 54 8.5
2008-04-09 08:04:16 51°18.02 2°57.834 58.7 3.2 54 8.5
2008-04-09 08:05:16 51°18.051 2°57.903 58.5 3.2 56 8.3
2008-04-09 08:06:16 51°18.083 2°57.971 58.3 3.2 57 8.3
2008-04-09 08:07:17 51°18.115 2°58.041 58 3.2 53 8.2
2008-04-09 08:08:16 51°18.146 2°58.108 58.5 3.1 55 8.1
2008-04-09 08:09:16 51°18.176 2°58.174 57.9 3.1 50 8
2008-04-09 08:10:16 51°18.207 2°58.24 58.3 3.1 54 8
2008-04-09 08:11:16 51°18.237 2°58.305 58.1 3 57 7.9
2008-04-09 08:12:16 51°18.267 2°58.368 58 3 55 7.9
2008-04-09 08:13:16 51°18.298 2°58.431 58.6 3 54 7.8
2008-04-09 08:14:16 51°18.327 2°58.494 60.4 2.9 57 7.8
2008-04-09 08:15:16 51°18.351 2°58.557 63.8 2.7 67 7.7
2008-04-09 08:16:17 51°18.358 2°58.621 92.3 2.5 122 7.7
2008-04-09 08:17:16 51°18.306 2°58.641 155.3 3.6 188 7.7
2008-04-09 08:18:16 51°18.256 2°58.622 155.1 2.7 197 7.7
2008-04-09 08:19:16 51°18.219 2°58.605 145.7 2 198 7.6
2008-04-09 08:20:16 51°18.191 2°58.588 135.6 1.6 203 7.8
2008-04-09 08:21:17 51°18.154 2°58.576 160.7 3.4 192 7.7
2008-04-09 08:22:16 51°18.092 2°58.504 228.1 5.5 235 7.7
2008-04-09 08:23:16 51°18.039 2°58.353 240.9 7.3 242 7.9
2008-04-09 08:24:16 51°17.973 2°58.142 244.1 10.3 244 8.3
2008-04-09 08:25:16 51°17.891 2°57.885 242.1 11.3 243 8.5
2008-04-09 08:26:16 51°17.801 2°57.602 242 13 241 8.4
2008-04-09 08:27:17 51°17.691 2°57.28 242.2 13.7 242 8.2
2008-04-09 08:28:16 51°17.586 2°56.964 242.1 13.7 243 8
2008-04-09 08:29:17 51°17.477 2°56.635 242.3 13.8 242 8.1
2008-04-09 08:30:16 51°17.372 2°56.316 242.8 13.8 243 8.2
2008-04-09 08:31:16 51°17.24 2°56.017 224.2 13.9 225 8.3
2008-04-09 08:32:16 51°17.06 2°55.795 210.3 13.6 214 8.5
2008-04-09 08:33:16 51°16.89 2°55.553 228.6 13.8 232 8.6
2008-04-09 08:34:16 51°16.753 2°55.262 239.7 13.7 243 8.6
2008-04-09 08:35:16 51°16.679 2°54.919 263.8 13.7 263 9.5
2008-04-09 08:36:16 51°16.635 2°54.562 263.3 13.6 265 9.4
2008-04-09 08:37:16 51°16.692 2°54.228 296.8 13 291 9.4
2008-04-09 08:38:16 51°16.762 2°53.9 291.4 13.1 285 9.4
2008-04-09 08:39:17 51°16.813 2°53.56 288.8 12.8 284 9.3
2008-04-09 08:40:16 51°16.865 2°53.239 286.1 12.4 281 7.8
2008-04-09 08:41:16 51°16.93 2°52.943 303.3 11.7 301 6.8
2008-04-09 08:42:16 51°17.072 2°52.717 328.3 12.1 326 8.3
2008-04-09 08:43:16 51°17.254 2°52.624 356.4 11.4 354 8
2008-04-09 08:44:16 51°17.444 2°52.597 0.1 11.4 355 8.3
2008-04-09 08:45:16 51°17.628 2°52.575 0.4 9.6 355 8.4
2008-04-09 08:46:16 51°17.692 2°52.453 276.2 6.3 261 8.7
2008-04-09 08:47:16 51°17.604 2°52.307 213.4 9.8 216 8.8
2008-04-09 08:48:16 51°17.463 2°52.163 206.8 8.8 209 8.9
2008-04-09 08:49:16 51°17.353 2°52.108 174.7 5.4 184 9
2008-04-09 08:50:16 51°17.281 2°52.107 157.6 3.6 177 9.3
2008-04-09 08:51:17 51°17.214 2°52.13 144.8 5.3 160 9
2008-04-09 08:52:17 51°17.128 2°52.209 127.7 6.2 140 8.9
2008-04-09 08:53:16 51°17.075 2°52.33 103.7 5 116 8.5
2008-04-09 08:54:16 51°17.051 2°52.415 92.8 2.6 113 8.3
2008-04-09 08:55:16 51°17.042 2°52.471 64.5 2.3 79 8.2
2008-04-09 08:56:16 51°17.108 2°52.503 3.7 6.9 358 8.3
2008-04-09 08:57:16 51°17.261 2°52.498 2.8 10.7 358 8.6
2008-04-09 08:58:16 51°17.446 2°52.491 3.6 11.2 359 8.4
2008-04-09 08:59:16 51°17.633 2°52.494 6.8 11.2 2 8.7
2008-04-09 09:00:16 51°17.817 2°52.514 16.2 11.1 13 8.6
2008-04-09 09:01:16 51°17.994 2°52.598 23 11.1 19 8.9
2008-04-09 09:02:17 51°18.152 2°52.737 46.2 10.5 50 9
2008-04-09 09:03:17 51°18.19 2°53.009 74.6 10.7 78 9.2
2008-04-09 09:04:16 51°18.24 2°53.278 70.6 10.8 73 9
2008-04-09 09:05:16 51°18.285 2°53.556 73.6 10.9 76 9.1
2008-04-09 09:06:16 51°18.343 2°53.824 66.4 10.6 68 9.1
2008-04-09 09:07:16 51°18.406 2°54.085 67 10.5 70 9
2008-04-09 09:08:17 51°18.467 2°54.349 68.3 10.4 74 8.9
2008-04-09 09:09:17 51°18.495 2°54.626 79.8 10.7 86 8.9
2008-04-09 09:10:17 51°18.453 2°54.903 107.5 11.3 117 8.6
2008-04-09 09:11:16 51°18.368 2°55.164 108.9 9.8 118 8.2
2008-04-09 09:12:17 51°18.303 2°55.276 133.3 3 164 8.1
2008-04-09 09:13:20 51°18.293 2°55.241 154.5 1.5 254 -999
2008-04-09 09:14:19 51°18.284 2°55.204 154.5 1.6 247 8.2
2008-04-09 09:15:18 51°18.273 2°55.167 153.1 1.6 242 8.2
2008-04-09 09:16:17 51°18.259 2°55.13 151.2 1.6 238 8.2
2008-04-09 09:17:17 51°18.243 2°55.093 150.5 1.8 234 8.2
2008-04-09 09:18:16 51°18.227 2°55.057 150.9 1.8 231 8.2
2008-04-09 09:19:17 51°18.207 2°55.021 152.1 1.8 229 8.2
2008-04-09 09:20:16 51°18.187 2°54.987 155 1.8 227 8.2
2008-04-09 09:21:17 51°18.166 2°54.953 157.2 1.9 225 8.2
2008-04-09 09:22:16 51°18.144 2°54.921 159.6 1.9 224 8.1
2008-04-09 09:23:17 51°18.108 2°54.911 127.8 2.8 161 8.1
2008-04-09 09:24:17 51°18.095 2°54.963 53.3 2 57 8
2008-04-09 09:25:16 51°18.141 2°54.998 38.8 3.5 40 8
2008-04-09 09:26:17 51°18.162 2°55.058 61.6 2.6 77 8.2
2008-04-09 09:27:17 51°18.176 2°55.131 62.3 3 75 8.2
2008-04-09 09:28:16 51°18.195 2°55.201 56.4 2.9 62 8.2
2008-04-09 09:29:16 51°18.212 2°55.275 62.1 3 72 8.1
2008-04-09 09:30:17 51°18.232 2°55.346 58.3 2.9 63 8.1
2008-04-09 09:31:17 51°18.244 2°55.422 62 2.9 72 8
2008-04-09 09:32:16 51°18.258 2°55.495 61.6 3 73 8
2008-04-09 09:33:17 51°18.274 2°55.571 59.7 2.9 69 8
2008-04-09 09:34:16 51°18.29 2°55.644 59.7 3 68 7.9
2008-04-09 09:35:16 51°18.307 2°55.719 60 3.1 70 7.9
2008-04-09 09:36:16 51°18.324 2°55.797 60.2 3.2 70 7.9
2008-04-09 09:37:16 51°18.344 2°55.87 49.3 2.7 51 7.8
2008-04-09 09:38:17 51°18.385 2°55.906 28.8 3.1 23 8
2008-04-09 09:39:17 51°18.438 2°55.916 6.3 3.5 349 8.1
2008-04-09 09:40:17 51°18.494 2°55.897 7.2 3.2 346 8.4
2008-04-09 09:41:16 51°18.541 2°55.875 6.7 2.9 341 8.6
2008-04-09 09:42:17 51°18.587 2°55.85 6.9 2.8 341 9
2008-04-09 09:43:16 51°18.63 2°55.826 9.3 2.7 341 8.9
2008-04-09 09:44:16 51°18.672 2°55.795 2.2 2.8 330 9.1
2008-04-09 09:45:16 51°18.711 2°55.749 355.8 2.8 325 9.1
2008-04-09 09:46:16 51°18.742 2°55.739 36.9 1.3 20 9.1
2008-04-09 09:47:17 51°18.749 2°55.742 49.6 0.2 247 9.2
2008-04-09 09:48:17 51°18.743 2°55.733 53.7 0.7 231 9.1
2008-04-09 09:49:17 51°18.732 2°55.714 54.4 1.1 230 9.2
2008-04-09 09:50:16 51°18.718 2°55.69 54.1 1.3 226 9.5
2008-04-09 09:51:17 51°18.701 2°55.659 53.1 1.6 233 9.2
2008-04-09 09:52:17 51°18.684 2°55.625 53.5 1.7 231 9.1
2008-04-09 09:53:17 51°18.664 2°55.59 55.5 1.8 230 9.3
2008-04-09 09:54:16 51°18.648 2°55.561 43.7 1 246 9.4
2008-04-09 09:55:16 51°18.665 2°55.516 332.3 3.9 293 9.2
2008-04-09 09:56:17 51°18.648 2°55.363 245.2 8.1 245 9.4
2008-04-09 09:57:16 51°18.577 2°55.056 250.3 14 249 9.2
2008-04-09 09:58:17 51°18.501 2°54.695 250.7 14.1 250 9.2
2008-04-09 09:59:16 51°18.419 2°54.351 249 14.1 248 9.4
2008-04-09 10:00:17 51°18.339 2°53.994 253 14 251 9.6
2008-04-09 10:01:16 51°18.261 2°53.651 250.4 14 249 9.6
2008-04-09 10:02:17 51°18.172 2°53.297 249.3 14.2 248 9.6
2008-04-09 10:03:16 51°18.095 2°52.95 252.8 14.1 251 9.7
2008-04-09 10:04:16 51°18.004 2°52.608 235.5 14 234 9.5
2008-04-09 10:05:17 51°17.814 2°52.393 195.2 13.7 200 9.5
2008-04-09 10:06:16 51°17.594 2°52.338 174 13.6 182 9.3
2008-04-09 10:07:17 51°17.367 2°52.365 162.9 13.3 172 9.4
2008-04-09 10:08:16 51°17.157 2°52.435 156.4 12.9 165 8.9
2008-04-09 10:09:16 51°16.959 2°52.56 145.4 12.8 154 8.9
2008-04-09 10:10:17 51°16.768 2°52.718 142.9 12.8 150 8.7
2008-04-09 10:11:16 51°16.586 2°52.88 145.1 12.6 151 10.6
2008-04-09 10:12:17 51°16.402 2°53.056 140 12.6 148 10.8
2008-04-09 10:13:17 51°16.219 2°53.207 142.7 12.1 152 10.8
2008-04-09 10:14:17 51°16.036 2°53.355 144.3 12.2 152 10.6
2008-04-09 10:15:16 51°15.857 2°53.509 142.1 12.6 153 10.3
2008-04-09 10:16:17 51°15.667 2°53.66 142.4 12.5 153 9.8
2008-04-09 10:17:17 51°15.486 2°53.816 140.8 12.3 149 9.4
2008-04-09 10:18:16 51°15.32 2°53.995 139.3 12.2 148 8.6
2008-04-09 10:19:16 51°15.15 2°54.17 139.9 12 147 8.1
2008-04-09 10:20:17 51°14.979 2°54.352 141.3 12.3 147 7.8
2008-04-09 10:21:17 51°14.807 2°54.537 140.4 12.5 147 8.8
2008-04-09 10:22:17 51°14.653 2°54.708 136.9 10.2 143 9
2008-04-09 10:23:17 51°14.526 2°54.863 134.2 9.3 141 9.4
2008-04-09 10:24:16 51°14.405 2°55.014 133.8 9.3 141 9.6
2008-04-09 10:25:16 51°14.297 2°55.197 131.9 9.6 132 9.5
2008-04-09 10:26:20 51°14.175 2°55.372 142.5 8.8 145 -999
2008-04-09 10:27:20 51°14.051 2°55.472 154.6 7.1 155 -999
2008-04-09 10:28:20 51°13.962 2°55.533 155.8 5.2 156 10.3
2008-04-09 10:29:20 51°13.882 2°55.59 154.5 5.4 155 -999
2008-04-09 10:30:20 51°13.802 2°55.657 148.6 5.3 147 9.5
2008-04-09 10:31:19 51°13.739 2°55.747 133.3 5.3 133 9.2
2008-04-09 10:32:19 51°13.689 2°55.849 124.3 4.3 125 -999
2008-04-09 10:33:19 51°13.666 2°55.93 107.1 2.5 106 6.3
2008-04-09 10:34:18 51°13.662 2°55.953 113.6 0.4 300 5.8